Time;durP1;ratioP1;P1;durP2;ratioP2;P2;SDS_P1;SDS_P2;PMS_P1;PMS_P2;Temp;Humidity;BMP_temperature;BMP_pressure;BME280_temperature;BME280_humidity;BME280_pressure;Samples;Min_cycle;Max_cycle;Signal;HPM_P1;HPM_P2
2021/12/21 15:34:01;;;;;;;6.80;3.75;;;1.20;99.90;;;;;;5096308;22;20123;-71
2021/12/21 15:36:27;;;;;;;6.60;3.63;;;1.10;99.90;;;;;;5095754;27;20122;-71
2021/12/21 15:38:54;;;;;;;7.15;3.95;;;1.10;99.90;;;;;;5104305;28;20126;-71
2021/12/21 15:41:20;;;;;;;7.15;4.10;;;1.00;99.90;;;;;;5106720;28;20034;-72
2021/12/21 15:43:46;;;;;;;4.50;3.47;;;1.00;99.90;;;;;;5101831;27;20443;-72
2021/12/21 15:46:13;;;;;;;6.03;3.55;;;1.00;99.90;;;;;;5119360;27;20031;-72
2021/12/21 15:48:44;;;;;;;7.15;4.10;;;1.00;99.90;;;;;;5091196;28;20094;-71
2021/12/21 15:51:10;;;;;;;8.77;4.53;;;0.90;99.90;;;;;;5089188;28;20041;-70
2021/12/21 15:53:36;;;;;;;8.13;4.35;;;0.90;99.90;;;;;;5094186;27;20085;-70
2021/12/21 15:56:01;;;;;;;6.85;3.95;;;0.90;99.90;;;;;;5096241;27;20028;-70
2021/12/21 15:58:27;;;;;;;7.05;4.18;;;0.90;99.90;;;;;;5096842;28;20514;-71
2021/12/21 16:00:53;;;;;;;8.45;5.13;;;0.80;99.90;;;;;;5100422;27;20024;-69
2021/12/21 16:03:19;;;;;;;6.95;5.07;;;0.80;99.90;;;;;;5111381;27;20387;-71
2021/12/21 16:05:47;;;;;;;9.52;6.07;;;0.80;99.90;;;;;;5105473;28;20030;-70
2021/12/21 16:08:13;;;;;;;14.65;9.45;;;0.80;99.90;;;;;;5095277;27;20160;-70
2021/12/21 16:10:38;;;;;;;21.45;18.88;;;0.80;99.90;;;;;;5113828;27;20152;-70
2021/12/21 16:13:04;;;;;;;11.65;8.13;;;0.80;99.90;;;;;;5089849;28;20039;-71
2021/12/21 16:15:30;;;;;;;12.48;7.75;;;0.70;99.90;;;;;;5096269;27;20077;-70
2021/12/21 16:17:56;;;;;;;11.38;9.20;;;0.70;99.90;;;;;;5095696;28;20020;-71
2021/12/21 16:20:21;;;;;;;8.02;5.88;;;0.70;99.90;;;;;;5097248;28;20537;-71
2021/12/21 16:22:47;;;;;;;10.75;8.07;;;0.70;99.90;;;;;;5094436;28;20031;-71
2021/12/21 16:25:13;;;;;;;14.73;6.43;;;0.70;99.90;;;;;;5096187;28;20487;-70
2021/12/21 16:27:40;;;;;;;12.77;6.03;;;0.60;99.90;;;;;;5095465;28;20036;-70
2021/12/21 16:30:20;;;;;;;8.30;5.78;;;0.60;99.90;;;;;;5095452;28;20118;-71
2021/12/21 16:32:48;;;;;;;9.80;7.53;;;0.60;99.90;;;;;;5090502;28;20020;-72
2021/12/21 16:35:15;;;;;;;8.23;6.40;;;0.60;99.90;;;;;;5095794;27;20032;-72
2021/12/21 16:37:41;;;;;;;8.93;6.50;;;0.60;99.90;;;;;;5095578;27;20118;-72
2021/12/21 16:40:07;;;;;;;8.82;5.70;;;0.60;99.90;;;;;;5096251;28;20103;-73
2021/12/21 16:42:33;;;;;;;10.73;8.85;;;0.50;99.90;;;;;;5095254;28;20062;-73
2021/12/21 16:44:58;;;;;;;13.20;9.35;;;0.50;99.90;;;;;;5092204;28;20448;-71
2021/12/21 16:47:24;;;;;;;10.35;6.20;;;0.50;99.90;;;;;;5094714;28;20100;-69
2021/12/21 16:49:50;;;;;;;7.63;5.20;;;0.50;99.90;;;;;;5092983;28;20030;-72
2021/12/21 16:52:15;;;;;;;9.38;6.22;;;0.40;99.90;;;;;;5090674;27;20028;-72
2021/12/21 16:54:41;;;;;;;6.38;5.45;;;0.30;99.90;;;;;;5089844;28;20131;-72
2021/12/21 16:57:07;;;;;;;11.38;9.20;;;0.30;99.90;;;;;;5105532;27;20099;-72
2021/12/21 16:59:33;;;;;;;8.32;5.70;;;0.30;99.90;;;;;;5100441;28;20058;-71
2021/12/21 17:02:00;;;;;;;13.55;7.22;;;0.20;99.90;;;;;;5106742;27;20031;-72
2021/12/21 17:04:26;;;;;;;9.93;6.35;;;0.20;99.90;;;;;;5108339;28;20050;-71
2021/12/21 17:06:52;;;;;;;23.10;16.67;;;0.20;99.90;;;;;;5095406;27;20399;-71
2021/12/21 17:09:21;;;;;;;10.25;6.80;;;0.10;99.90;;;;;;5107775;27;20102;-71
2021/12/21 17:11:48;;;;;;;14.73;7.78;;;0.10;99.90;;;;;;5100849;27;20421;-71
2021/12/21 17:14:14;;;;;;;29.95;21.25;;;0.10;99.90;;;;;;5103625;28;20024;-71
2021/12/21 17:16:40;;;;;;;12.55;8.95;;;0.00;99.90;;;;;;5097244;28;20137;-71
2021/12/21 17:19:05;;;;;;;14.88;9.88;;;0.00;99.90;;;;;;5099569;28;20490;-68
2021/12/21 17:21:31;;;;;;;14.70;7.60;;;0.00;99.90;;;;;;5091936;28;20056;-71
2021/12/21 17:23:57;;;;;;;13.85;8.20;;;-0.10;99.90;;;;;;5102519;28;20051;-71
2021/12/21 17:26:23;;;;;;;16.52;8.43;;;-0.10;99.90;;;;;;5085830;28;20038;-70
2021/12/21 17:28:49;;;;;;;16.00;8.18;;;-0.10;99.90;;;;;;5097863;28;20024;-71
2021/12/21 17:31:14;;;;;;;13.25;8.88;;;-0.10;99.90;;;;;;5094581;28;20065;-72
2021/12/21 17:33:40;;;;;;;20.92;16.55;;;-0.10;99.90;;;;;;5093610;28;20063;-71
2021/12/21 17:36:12;;;;;;;13.93;7.30;;;-0.10;99.90;;;;;;5116277;27;20034;-71
2021/12/21 17:38:40;;;;;;;13.45;7.13;;;-0.10;99.90;;;;;;5112493;27;20030;-68
2021/12/21 17:41:07;;;;;;;14.48;9.57;;;-0.10;99.90;;;;;;5105368;28;20020;-69
2021/12/21 17:43:33;;;;;;;14.20;7.88;;;-0.20;99.90;;;;;;5096473;28;20031;-71
2021/12/21 17:45:58;;;;;;;16.80;7.43;;;-0.20;99.90;;;;;;5099095;27;20023;-69
2021/12/21 17:48:24;;;;;;;13.60;7.10;;;-0.20;99.90;;;;;;5093125;28;20356;-69
2021/12/21 17:50:50;;;;;;;11.18;6.50;;;-0.20;99.90;;;;;;5097786;28;20467;-69
2021/12/21 17:53:16;;;;;;;18.00;7.25;;;-0.20;99.90;;;;;;5098458;27;20041;-68
2021/12/21 17:55:41;;;;;;;12.95;7.22;;;-0.30;99.90;;;;;;5100427;27;20027;-70
2021/12/21 17:58:07;;;;;;;13.20;7.80;;;-0.30;99.90;;;;;;5093354;28;20027;-70
2021/12/21 18:00:33;;;;;;;12.25;7.00;;;-0.30;99.90;;;;;;5098829;27;20046;-70
2021/12/21 18:02:58;;;;;;;17.92;8.02;;;-0.30;99.90;;;;;;5095222;28;20024;-70
2021/12/21 18:05:25;;;;;;;14.05;7.78;;;-0.40;99.90;;;;;;5105572;28;20027;-70
2021/12/21 18:07:51;;;;;;;12.32;7.40;;;-0.40;99.90;;;;;;5101238;27;20484;-70
2021/12/21 18:10:17;;;;;;;15.88;9.52;;;-0.40;99.90;;;;;;5094238;27;20042;-70
2021/12/21 18:12:42;;;;;;;20.60;11.45;;;-0.40;99.90;;;;;;5098400;27;20537;-70
2021/12/21 18:15:10;;;;;;;16.05;9.75;;;-0.30;99.90;;;;;;5093628;28;20023;-70
2021/12/21 18:17:36;;;;;;;17.30;10.95;;;-0.40;99.90;;;;;;5092983;28;20020;-69
2021/12/21 18:20:04;;;;;;;26.95;13.38;;;-0.40;99.90;;;;;;5105052;27;20023;-69
2021/12/21 18:22:29;;;;;;;20.48;11.13;;;-0.40;99.90;;;;;;5096873;27;20024;-70
2021/12/21 18:24:55;;;;;;;19.90;12.32;;;-0.40;99.90;;;;;;5095429;28;20024;-70
2021/12/21 18:27:21;;;;;;;33.03;17.90;;;-0.40;99.90;;;;;;5101338;28;20019;-68
2021/12/21 18:29:46;;;;;;;32.45;17.20;;;-0.40;99.90;;;;;;5097527;27;20110;-69
2021/12/21 18:32:12;;;;;;;39.40;22.35;;;-0.40;99.90;;;;;;5101808;27;20043;-70
2021/12/21 18:34:38;;;;;;;39.25;23.50;;;-0.40;99.90;;;;;;5102261;28;20568;-70
2021/12/21 18:37:06;;;;;;;34.78;20.23;;;-0.40;99.90;;;;;;5099836;28;20046;-69
2021/12/21 18:39:33;;;;;;;36.25;22.00;;;-0.50;99.90;;;;;;5095327;28;20487;-70
2021/12/21 18:41:59;;;;;;;28.13;16.65;;;-0.40;99.90;;;;;;5099179;28;20207;-69
2021/12/21 18:44:25;;;;;;;23.05;12.55;;;-0.40;99.90;;;;;;5096158;28;20102;-68
2021/12/21 18:46:51;;;;;;;20.88;11.10;;;-0.50;99.90;;;;;;5091844;28;20031;-69
2021/12/21 18:49:19;;;;;;;19.77;10.10;;;-0.50;99.90;;;;;;5097310;28;20027;-70
2021/12/21 18:51:46;;;;;;;16.75;9.80;;;-0.50;99.90;;;;;;5125550;28;20035;-70
2021/12/21 18:54:12;;;;;;;19.42;9.40;;;-0.50;99.90;;;;;;5094206;28;20023;-70
2021/12/21 18:56:38;;;;;;;27.67;11.98;;;-0.60;99.90;;;;;;5099297;28;20028;-70
2021/12/21 18:59:07;;;;;;;15.32;9.20;;;-0.60;99.90;;;;;;5097277;28;20019;-70
2021/12/21 19:01:36;;;;;;;16.42;8.52;;;-0.60;99.90;;;;;;5122562;28;20520;-70
2021/12/21 19:04:03;;;;;;;17.27;9.30;;;-0.60;99.90;;;;;;5098188;28;20477;-70
2021/12/21 19:06:29;;;;;;;16.02;9.15;;;-0.60;99.90;;;;;;5094884;28;20032;-71
2021/12/21 19:08:59;;;;;;;21.98;9.45;;;-0.70;99.90;;;;;;5099086;28;20292;-70
2021/12/21 19:11:25;;;;;;;17.45;10.13;;;-0.60;99.90;;;;;;5096016;28;20075;-71
2021/12/21 19:13:51;;;;;;;16.85;12.52;;;-0.70;99.90;;;;;;5102228;28;20027;-71
2021/12/21 19:16:16;;;;;;;15.57;9.18;;;-0.70;99.90;;;;;;5096207;28;20035;-71
2021/12/21 19:18:42;;;;;;;18.13;9.73;;;-0.70;99.90;;;;;;5099337;28;20557;-71
2021/12/21 19:21:08;;;;;;;19.58;13.63;;;-0.70;99.90;;;;;;5098295;28;20491;-71
2021/12/21 19:23:34;;;;;;;17.83;10.32;;;-0.70;99.90;;;;;;5097879;28;20483;-70
2021/12/21 19:25:59;;;;;;;17.63;11.45;;;-0.70;99.90;;;;;;5094085;28;20027;-71
2021/12/21 19:28:28;;;;;;;17.70;9.13;;;-0.80;99.90;;;;;;5096637;28;20027;-70
2021/12/21 19:30:54;;;;;;;18.55;10.13;;;-0.80;99.90;;;;;;5094663;28;20479;-70
2021/12/21 19:33:20;;;;;;;17.27;9.02;;;-0.80;99.90;;;;;;5065987;28;1100793;-70
2021/12/21 19:35:47;;;;;;;13.45;8.88;;;-0.80;99.90;;;;;;5102061;28;20023;-70
2021/12/21 19:38:14;;;;;;;17.05;9.35;;;-0.80;99.90;;;;;;5095406;28;20444;-70
2021/12/21 19:40:40;;;;;;;34.38;16.02;;;-0.80;99.90;;;;;;5091535;28;20073;-69
2021/12/21 19:43:09;;;;;;;133.52;27.67;;;-0.80;99.90;;;;;;5099272;28;20054;-70
2021/12/21 19:45:40;;;;;;;21.88;10.70;;;-0.80;99.90;;;;;;5092010;28;20039;-70
2021/12/21 19:48:09;;;;;;;20.10;8.90;;;-0.90;99.90;;;;;;5094515;27;20502;-70
2021/12/21 19:50:36;;;;;;;15.98;8.73;;;-0.90;99.90;;;;;;5098788;27;20028;-70
2021/12/21 19:53:02;;;;;;;14.77;8.57;;;-0.90;99.90;;;;;;5101697;27;20395;-70
2021/12/21 19:55:28;;;;;;;19.05;9.90;;;-0.90;99.90;;;;;;5101125;28;20390;-70
2021/12/21 19:57:57;;;;;;;25.85;14.00;;;-0.90;99.90;;;;;;5100885;27;20031;-70
2021/12/21 20:00:26;;;;;;;25.10;12.68;;;-0.90;99.90;;;;;;5098940;28;20035;-69
2021/12/21 20:02:52;;;;;;;21.60;10.88;;;-0.90;99.90;;;;;;5108901;27;20042;-70
2021/12/21 20:05:22;;;;;;;19.50;10.13;;;-1.00;99.90;;;;;;5102941;27;20019;-70
2021/12/21 20:07:47;;;;;;;15.98;9.70;;;-1.00;99.90;;;;;;5099696;28;20031;-70
2021/12/21 20:10:24;;;;;;;16.02;9.40;;;-1.00;99.90;;;;;;5100156;27;20873;-70
2021/12/21 20:12:51;;;;;;;18.70;9.30;;;-1.00;99.90;;;;;;5100439;27;20177;-69
2021/12/21 20:15:19;;;;;;;13.10;8.30;;;-1.10;99.90;;;;;;5085483;28;20284;-71
2021/12/21 20:17:47;;;;;;;15.98;8.90;;;-1.10;99.90;;;;;;5102895;27;20046;-71
2021/12/21 20:20:15;;;;;;;13.95;8.32;;;-1.00;99.90;;;;;;5104528;27;20023;-70
2021/12/21 20:22:41;;;;;;;15.05;8.35;;;-1.10;99.90;;;;;;5099398;28;20114;-71
2021/12/21 20:25:07;;;;;;;17.25;8.25;;;-1.10;99.90;;;;;;5098645;28;20558;-70
2021/12/21 20:27:32;;;;;;;38.72;15.23;;;-1.10;99.90;;;;;;5093046;28;20039;-70
2021/12/21 20:29:58;;;;;;;23.75;12.07;;;-1.20;99.90;;;;;;5094299;27;20055;-70
2021/12/21 20:32:23;;;;;;;22.88;10.27;;;-1.20;99.90;;;;;;5096115;28;20388;-70
2021/12/21 20:34:49;;;;;;;16.95;9.70;;;-1.30;99.90;;;;;;5087255;28;20035;-70
2021/12/21 20:37:15;;;;;;;16.88;8.88;;;-1.30;99.90;;;;;;5092037;27;20041;-70
2021/12/21 20:39:42;;;;;;;16.45;9.32;;;-1.30;99.90;;;;;;5111107;27;20544;-70
2021/12/21 20:42:09;;;;;;;21.35;9.70;;;-1.40;99.90;;;;;;5092230;28;20031;-70
2021/12/21 20:44:35;;;;;;;16.70;9.10;;;-1.40;99.90;;;;;;5089390;28;20032;-70
2021/12/21 20:47:00;;;;;;;14.68;9.30;;;-1.40;99.90;;;;;;5097092;28;20019;-70
2021/12/21 20:49:26;;;;;;;13.93;9.20;;;-1.40;99.90;;;;;;5096147;28;20498;-70
2021/12/21 20:51:52;;;;;;;17.67;10.07;;;-1.50;99.90;;;;;;5092256;28;20070;-70
2021/12/21 20:54:17;;;;;;;24.30;12.32;;;-1.60;99.90;;;;;;5100827;28;20483;-70
2021/12/21 20:56:43;;;;;;;22.45;10.57;;;-1.60;99.90;;;;;;5080963;28;20459;-70
2021/12/21 20:59:09;;;;;;;18.95;10.48;;;-1.60;99.90;;;;;;5097336;27;20115;-70
2021/12/21 21:01:35;;;;;;;22.42;10.70;;;-1.70;99.90;;;;;;5095328;28;20066;-70
2021/12/21 21:04:00;;;;;;;18.35;11.07;;;-1.70;99.90;;;;;;5099178;27;20126;-70
2021/12/21 21:06:27;;;;;;;29.70;13.35;;;-1.80;99.90;;;;;;5095957;27;20042;-71
2021/12/21 21:08:55;;;;;;;21.35;11.82;;;-1.80;99.90;;;;;;5105516;28;20027;-70
2021/12/21 21:11:21;;;;;;;21.48;12.00;;;-1.80;99.90;;;;;;5098136;27;20506;-70
2021/12/21 21:13:47;;;;;;;18.10;10.40;;;-1.80;99.90;;;;;;5101622;27;20035;-70
2021/12/21 21:16:13;;;;;;;19.75;10.65;;;-1.80;99.90;;;;;;5092600;27;20548;-70
2021/12/21 21:18:39;;;;;;;27.38;10.35;;;-1.80;99.90;;;;;;5096302;28;20028;-70
2021/12/21 21:21:05;;;;;;;18.95;10.85;;;-1.80;99.90;;;;;;5094982;28;20499;-70
2021/12/21 21:23:32;;;;;;;25.13;10.70;;;-1.80;99.90;;;;;;5094979;28;20324;-71
2021/12/21 21:25:58;;;;;;;20.67;10.35;;;-1.80;99.90;;;;;;5075303;28;20113;-70
2021/12/21 21:28:25;;;;;;;19.27;10.48;;;-1.90;99.90;;;;;;5082156;28;20043;-70
2021/12/21 21:30:51;;;;;;;20.25;10.70;;;-1.90;99.90;;;;;;5097233;28;20038;-70
2021/12/21 21:33:17;;;;;;;19.45;9.90;;;-1.80;99.90;;;;;;5095361;28;20023;-70
2021/12/21 21:35:47;;;;;;;20.45;11.40;;;-1.90;99.90;;;;;;5124704;27;20111;-71
2021/12/21 21:38:13;;;;;;;19.33;10.00;;;-1.90;99.90;;;;;;5097927;28;20030;-71
2021/12/21 21:40:39;;;;;;;18.33;10.20;;;-1.90;99.90;;;;;;5094668;28;20023;-70
2021/12/21 21:43:04;;;;;;;17.92;10.10;;;-1.90;99.90;;;;;;5094910;27;20038;-71
2021/12/21 21:45:30;;;;;;;17.73;10.35;;;-1.90;99.90;;;;;;5095016;28;20122;-71
2021/12/21 21:47:56;;;;;;;18.02;9.93;;;-1.90;99.90;;;;;;5097071;27;20028;-70
2021/12/21 21:50:22;;;;;;;19.95;9.82;;;-2.00;99.90;;;;;;5102023;27;20023;-75
2021/12/21 21:52:48;;;;;;;18.67;9.75;;;-2.00;99.90;;;;;;5098915;28;20035;-70
2021/12/21 21:55:14;;;;;;;17.20;10.05;;;-2.00;99.90;;;;;;5096251;27;20031;-70
2021/12/21 21:57:41;;;;;;;15.77;9.18;;;-2.00;99.90;;;;;;5094103;27;20055;-71
2021/12/21 22:00:11;;;;;;;17.02;9.55;;;-2.00;99.90;;;;;;5097599;27;20030;-70
2021/12/21 22:02:37;;;;;;;22.92;10.27;;;-2.10;99.90;;;;;;5098648;27;20037;-71
2021/12/21 22:05:03;;;;;;;17.45;10.30;;;-2.00;99.90;;;;;;5102523;28;20076;-71
2021/12/21 22:07:28;;;;;;;18.30;10.00;;;-2.10;99.90;;;;;;5106967;27;20057;-71
2021/12/21 22:09:54;;;;;;;19.85;10.38;;;-2.00;99.90;;;;;;5102694;27;20080;-70
2021/12/21 22:12:20;;;;;;;20.20;10.30;;;-2.10;99.90;;;;;;5109178;27;20602;-70
2021/12/21 22:14:46;;;;;;;16.25;10.23;;;-2.00;99.90;;;;;;5098253;28;20061;-70
2021/12/21 22:17:11;;;;;;;17.70;9.57;;;-2.00;99.90;;;;;;5096905;28;20076;-70
2021/12/21 22:19:37;;;;;;;18.70;9.50;;;-2.00;99.90;;;;;;5096663;27;20024;-70
2021/12/21 22:22:03;;;;;;;18.38;9.95;;;-1.90;99.90;;;;;;5103748;27;20406;-70
2021/12/21 22:24:29;;;;;;;14.77;9.18;;;-1.90;99.90;;;;;;5105336;27;20069;-68
2021/12/21 22:26:54;;;;;;;17.95;9.50;;;-1.90;99.90;;;;;;5097738;28;20590;-71
2021/12/21 22:29:20;;;;;;;16.05;9.52;;;-1.90;99.90;;;;;;5099665;27;20015;-70
2021/12/21 22:31:46;;;;;;;17.13;9.48;;;-2.00;99.90;;;;;;5102360;27;20031;-70
2021/12/21 22:34:13;;;;;;;19.65;9.98;;;-2.00;99.90;;;;;;5100570;27;20023;-70
2021/12/21 22:36:41;;;;;;;15.88;9.10;;;-2.00;99.90;;;;;;5100549;28;20031;-70
2021/12/21 22:39:07;;;;;;;16.90;9.48;;;-2.10;99.90;;;;;;5091421;28;20028;-70
2021/12/21 22:41:33;;;;;;;20.15;10.13;;;-2.10;99.90;;;;;;5089440;28;20058;-70
2021/12/21 22:43:59;;;;;;;18.08;9.95;;;-2.10;99.90;;;;;;5096616;28;20464;-70
2021/12/21 22:46:25;;;;;;;17.70;9.27;;;-2.10;99.90;;;;;;5095724;28;20031;-71
2021/12/21 22:48:52;;;;;;;18.38;9.35;;;-2.20;99.90;;;;;;5084496;28;20031;-70
2021/12/21 22:51:18;;;;;;;17.42;10.23;;;-2.20;99.90;;;;;;5089525;28;20030;-70
2021/12/21 22:53:44;;;;;;;19.05;9.43;;;-2.20;99.90;;;;;;5109328;28;20023;-70
2021/12/21 22:56:09;;;;;;;18.15;9.65;;;-2.30;99.90;;;;;;5101731;27;20519;-70
2021/12/21 22:58:36;;;;;;;18.42;10.15;;;-2.20;99.90;;;;;;5094397;28;20035;-70
2021/12/21 23:01:04;;;;;;;19.55;9.85;;;-2.30;99.90;;;;;;5103919;28;20031;-70
2021/12/21 23:03:33;;;;;;;16.63;9.77;;;-2.30;99.90;;;;;;5107240;28;20023;-70
2021/12/21 23:05:59;;;;;;;21.48;10.30;;;-2.40;99.90;;;;;;5101536;28;20127;-70
2021/12/21 23:08:24;;;;;;;21.63;10.20;;;-2.40;99.90;;;;;;5094872;28;20028;-70
2021/12/21 23:10:50;;;;;;;15.55;9.85;;;-2.50;99.90;;;;;;5103815;28;20478;-70
2021/12/21 23:13:16;;;;;;;23.83;10.52;;;-2.60;99.90;;;;;;5087928;28;20480;-71
2021/12/21 23:15:48;;;;;;;22.38;9.95;;;-2.60;99.90;;;;;;5089833;28;20042;-70
2021/12/21 23:18:14;;;;;;;22.17;10.43;;;-2.70;99.90;;;;;;5093847;28;20476;-70
2021/12/21 23:20:39;;;;;;;16.50;9.55;;;-2.70;99.90;;;;;;5098166;28;20122;-70
2021/12/21 23:23:05;;;;;;;23.58;10.20;;;-2.70;99.90;;;;;;5095746;28;20031;-70
2021/12/21 23:25:31;;;;;;;18.75;10.20;;;-2.70;99.90;;;;;;5109896;27;20096;-70
2021/12/21 23:27:59;;;;;;;19.45;10.18;;;-2.70;99.90;;;;;;5115899;27;20065;-70
2021/12/21 23:30:25;;;;;;;18.48;10.10;;;-2.70;99.90;;;;;;5103130;28;20019;-71
2021/12/21 23:32:51;;;;;;;20.13;10.90;;;-2.70;99.90;;;;;;5097041;28;20438;-70
2021/12/21 23:35:17;;;;;;;18.75;10.85;;;-2.70;99.90;;;;;;5116023;27;20027;-70
2021/12/21 23:37:43;;;;;;;21.20;10.82;;;-2.70;99.90;;;;;;5097893;28;20031;-70
2021/12/21 23:40:12;;;;;;;27.42;11.55;;;-2.70;99.90;;;;;;5106603;27;20042;-69
2021/12/21 23:42:38;;;;;;;22.65;10.40;;;-2.80;99.90;;;;;;5101528;27;20036;-70
2021/12/21 23:45:04;;;;;;;20.52;9.77;;;-2.70;99.90;;;;;;5109478;27;20031;-70
2021/12/21 23:47:30;;;;;;;21.85;10.65;;;-2.70;99.90;;;;;;5105201;27;20027;-70
2021/12/21 23:49:56;;;;;;;18.25;9.18;;;-2.70;99.90;;;;;;5109698;27;20022;-70
2021/12/21 23:52:25;;;;;;;22.33;10.90;;;-2.70;99.90;;;;;;5097603;28;20067;-70
2021/12/21 23:54:50;;;;;;;17.65;10.07;;;-2.70;99.90;;;;;;5101055;28;20024;-71
2021/12/21 23:57:16;;;;;;;17.50;9.00;;;-2.70;99.90;;;;;;5109335;27;20542;-70
2021/12/21 23:59:42;;;;;;;20.50;10.43;;;-2.70;99.90;;;;;;5106417;28;20082;-70
